Time;durP1;ratioP1;P1;durP2;ratioP2;P2;SDS_P1;SDS_P2;PMS_P1;PMS_P2;Temp;Humidity;BMP_temperature;BMP_pressure;BME280_temperature;BME280_humidity;BME280_pressure;Samples;Min_cycle;Max_cycle;Signal;HPM_P1;HPM_P2
2024/04/21 00:02:15;;;;;;;3.43;2.30;;;;;;;;;;5425810;26;20235;-60
2024/04/21 00:04:44;;;;;;;2.77;2.67;;;;;;;;;;5426729;26;20241;-59
2024/04/21 00:07:13;;;;;;;2.57;2.47;;;;;;;;;;5440439;26;20575;-60
2024/04/21 00:09:42;;;;;;;3.30;3.00;;;;;;;;;;5440008;26;20224;-60
2024/04/21 00:12:11;;;;;;;3.60;3.07;;;;;;;;;;5437443;26;20740;-59
2024/04/21 00:14:37;;;;;;;2.77;2.57;;;;;;;;;;5439489;26;20224;-58
2024/04/21 00:17:06;;;;;;;2.30;2.20;;;;;;;;;;5439913;26;20236;-60
2024/04/21 00:19:33;;;;;;;2.33;2.23;;;;;;;;;;5437905;26;20275;-60
2024/04/21 00:22:01;;;;;;;2.40;2.30;;;;;;;;;;5431707;26;20270;-60
2024/04/21 00:24:30;;;;;;;2.63;2.53;;;;;;;;;;5439683;26;20223;-60
2024/04/21 00:27:00;;;;;;;2.63;2.53;;;;;;;;;;5437264;26;20235;-59
2024/04/21 00:29:26;;;;;;;2.63;2.50;;;;;;;;;;5438329;26;20374;-60
2024/04/21 00:31:55;;;;;;;2.30;2.10;;;;;;;;;;5434577;26;20351;-59
2024/04/21 00:34:21;;;;;;;2.53;2.33;;;;;;;;;;5439963;26;20232;-59
2024/04/21 00:36:50;;;;;;;1.73;1.63;;;;;;;;;;5439955;26;20589;-59
2024/04/21 00:39:16;;;;;;;2.57;2.37;;;;;;;;;;5439320;26;20283;-59
2024/04/21 00:41:48;;;;;;;2.40;2.20;;;;;;;;;;5438630;26;20244;-59
2024/04/21 00:44:14;;;;;;;2.20;2.13;;;;;;;;;;5438401;26;20778;-60
2024/04/21 00:46:43;;;;;;;2.20;1.73;;;;;;;;;;5439362;26;20237;-59
2024/04/21 00:49:10;;;;;;;2.13;2.03;;;;;;;;;;5437184;26;20869;-59
2024/04/21 00:51:39;;;;;;;2.10;2.00;;;;;;;;;;5436839;26;20227;-60
2024/04/21 00:54:06;;;;;;;2.80;1.93;;;;;;;;;;5439118;26;20313;-59
2024/04/21 00:56:35;;;;;;;1.60;1.50;;;;;;;;;;5439110;26;20338;-59
2024/04/21 00:59:04;;;;;;;1.53;1.43;;;;;;;;;;5439014;26;20225;-59
2024/04/21 01:01:33;;;;;;;2.50;1.50;;;;;;;;;;5438336;26;20232;-59
2024/04/21 01:03:59;;;;;;;1.27;1.17;;;;;;;;;;5439097;26;20232;-60
2024/04/21 01:06:28;;;;;;;1.27;1.27;;;;;;;;;;5430758;26;20659;-60
2024/04/21 01:08:54;;;;;;;1.40;1.40;;;;;;;;;;5439967;26;20592;-59
2024/04/21 01:11:25;;;;;;;1.67;1.60;;;;;;;;;;5442903;26;20283;-59
2024/04/21 01:13:51;;;;;;;2.67;1.50;;;;;;;;;;5442910;26;20408;-59
2024/04/21 01:16:22;;;;;;;2.30;1.60;;;;;;;;;;5439877;26;20286;-59
2024/04/21 01:18:49;;;;;;;3.47;1.67;;;;;;;;;;5436410;26;20276;-59
2024/04/21 01:21:17;;;;;;;1.60;1.50;;;;;;;;;;5442623;26;20219;-59
2024/04/21 01:23:46;;;;;;;1.50;1.50;;;;;;;;;;5441913;26;20242;-60
2024/04/21 01:26:15;;;;;;;1.60;1.50;;;;;;;;;;5440077;26;20282;-59
2024/04/21 01:28:41;;;;;;;2.13;1.83;;;;;;;;;;5442112;26;20239;-59
2024/04/21 01:31:10;;;;;;;1.73;1.53;;;;;;;;;;5441869;26;20242;-59
2024/04/21 01:33:37;;;;;;;1.80;1.70;;;;;;;;;;5441263;26;20227;-59
2024/04/21 01:36:06;;;;;;;1.90;1.80;;;;;;;;;;5442080;26;20309;-59
2024/04/21 01:38:32;;;;;;;1.87;1.77;;;;;;;;;;5442459;26;20924;-60
2024/04/21 01:41:04;;;;;;;2.10;1.83;;;;;;;;;;5440978;26;20279;-59
2024/04/21 01:43:30;;;;;;;1.90;1.80;;;;;;;;;;5437630;26;20359;-60
2024/04/21 01:45:59;;;;;;;2.93;2.30;;;;;;;;;;5455712;26;20237;-60
2024/04/21 01:48:25;;;;;;;2.20;2.03;;;;;;;;;;5442382;26;20563;-59
2024/04/21 01:50:54;;;;;;;2.47;2.37;;;;;;;;;;5440368;26;20244;-59
2024/04/21 01:53:20;;;;;;;2.87;2.57;;;;;;;;;;5439405;26;20395;-59
2024/04/21 01:55:49;;;;;;;2.17;2.07;;;;;;;;;;5437068;26;20241;-60
2024/04/21 01:58:34;;;;;;;2.07;1.97;;;;;;;;;;5441990;26;20247;-60
2024/04/21 02:01:06;;;;;;;2.40;2.30;;;;;;;;;;5439810;26;20626;-60
2024/04/21 02:03:33;;;;;;;1.87;1.87;;;;;;;;;;5416033;26;20298;-60
2024/04/21 02:06:01;;;;;;;1.47;1.47;;;;;;;;;;5427286;26;20301;-59
2024/04/21 02:08:28;;;;;;;1.93;1.90;;;;;;;;;;5435034;26;20286;-60
2024/04/21 02:10:57;;;;;;;2.37;2.27;;;;;;;;;;5440743;26;20274;-60
2024/04/21 02:13:23;;;;;;;1.80;1.70;;;;;;;;;;5442603;26;20235;-60
2024/04/21 02:15:53;;;;;;;2.03;1.93;;;;;;;;;;5441586;26;20238;-60
2024/04/21 02:18:22;;;;;;;2.17;2.07;;;;;;;;;;5442690;26;20340;-59
2024/04/21 02:20:51;;;;;;;2.23;2.00;;;;;;;;;;5436477;26;20233;-59
2024/04/21 02:23:17;;;;;;;2.37;2.27;;;;;;;;;;5442439;26;20267;-59
2024/04/21 02:25:46;;;;;;;2.10;2.00;;;;;;;;;;5442778;26;20324;-59
2024/04/21 02:28:12;;;;;;;1.67;1.63;;;;;;;;;;5442869;26;20222;-59
2024/04/21 02:30:41;;;;;;;2.40;2.30;;;;;;;;;;5444658;26;20300;-60
2024/04/21 02:33:08;;;;;;;2.87;2.77;;;;;;;;;;5442647;26;20300;-60
2024/04/21 02:35:40;;;;;;;2.27;2.17;;;;;;;;;;5440261;26;20243;-59
2024/04/21 02:38:09;;;;;;;3.13;2.83;;;;;;;;;;5442388;26;20232;-59
2024/04/21 02:40:38;;;;;;;2.77;2.47;;;;;;;;;;5441149;26;20613;-59
2024/04/21 02:43:04;;;;;;;2.13;2.03;;;;;;;;;;5444816;26;20222;-60
2024/04/21 02:45:33;;;;;;;2.33;2.23;;;;;;;;;;5442516;26;20232;-59
2024/04/21 02:48:00;;;;;;;1.77;1.67;;;;;;;;;;5442599;26;20257;-59
2024/04/21 02:50:29;;;;;;;3.23;1.97;;;;;;;;;;5440272;26;20241;-59
2024/04/21 02:52:57;;;;;;;2.10;2.00;;;;;;;;;;5442119;26;20277;-60
2024/04/21 02:55:26;;;;;;;2.43;2.23;;;;;;;;;;5429667;26;20245;-59
2024/04/21 02:57:53;;;;;;;4.20;2.10;;;;;;;;;;5441498;26;20302;-60
2024/04/21 03:00:22;;;;;;;3.83;2.60;;;;;;;;;;5439520;26;20235;-59
2024/04/21 03:02:48;;;;;;;2.33;2.23;;;;;;;;;;5440417;26;20263;-59
2024/04/21 03:05:17;;;;;;;2.00;1.80;;;;;;;;;;5441546;26;20343;-58
2024/04/21 03:07:44;;;;;;;2.47;2.37;;;;;;;;;;5441568;26;20282;-59
2024/04/21 03:10:15;;;;;;;2.20;2.00;;;;;;;;;;5441050;26;20394;-59
2024/04/21 03:12:41;;;;;;;2.30;2.20;;;;;;;;;;5440962;26;20742;-60
2024/04/21 03:15:10;;;;;;;3.03;2.93;;;;;;;;;;5449618;26;20231;-60
2024/04/21 03:17:36;;;;;;;3.03;2.70;;;;;;;;;;5478389;26;20573;-60
2024/04/21 03:20:06;;;;;;;2.93;2.53;;;;;;;;;;5455775;26;20865;-59
2024/04/21 03:22:32;;;;;;;3.03;2.90;;;;;;;;;;5441825;26;20586;-59
2024/04/21 03:25:01;;;;;;;3.43;2.27;;;;;;;;;;5441817;26;20263;-59
2024/04/21 03:27:30;;;;;;;3.57;3.37;;;;;;;;;;5442007;26;20225;-59
2024/04/21 03:29:59;;;;;;;3.07;2.90;;;;;;;;;;5441014;26;20232;-59
2024/04/21 03:32:25;;;;;;;3.53;3.30;;;;;;;;;;5437900;26;20732;-60
2024/04/21 03:34:55;;;;;;;3.23;3.13;;;;;;;;;;5440954;26;20241;-60
2024/04/21 03:37:24;;;;;;;3.47;3.37;;;;;;;;;;5477899;26;20263;-59
2024/04/21 03:39:53;;;;;;;3.70;3.53;;;;;;;;;;5463701;26;20279;-59
2024/04/21 03:42:19;;;;;;;3.77;3.57;;;;;;;;;;5441553;26;20224;-59
2024/04/21 03:44:51;;;;;;;3.03;2.87;;;;;;;;;;5442686;26;20333;-60
2024/04/21 03:47:17;;;;;;;3.77;3.40;;;;;;;;;;5449861;21;20608;-63
2024/04/21 03:49:46;;;;;;;3.67;3.50;;;;;;;;;;5402558;26;20237;-63
2024/04/21 03:52:12;;;;;;;3.30;3.10;;;;;;;;;;5429799;26;20234;-63
2024/04/21 03:54:41;;;;;;;3.50;3.30;;;;;;;;;;5441625;26;20240;-63
2024/04/21 03:57:07;;;;;;;3.73;3.43;;;;;;;;;;5441780;26;20280;-63
2024/04/21 03:59:36;;;;;;;3.30;3.20;;;;;;;;;;5436909;26;20310;-62
2024/04/21 04:02:05;;;;;;;3.43;3.23;;;;;;;;;;5407153;26;20233;-63
2024/04/21 04:04:34;;;;;;;3.50;3.40;;;;;;;;;;5419849;26;20275;-63
2024/04/21 04:07:00;;;;;;;3.33;3.13;;;;;;;;;;5405787;26;20230;-63
2024/04/21 04:09:29;;;;;;;4.47;4.17;;;;;;;;;;5401581;26;20849;-61
2024/04/21 04:11:55;;;;;;;4.20;3.90;;;;;;;;;;5406493;26;20229;-60
2024/04/21 04:14:24;;;;;;;3.80;3.60;;;;;;;;;;5408854;26;20271;-61
2024/04/21 04:16:51;;;;;;;4.90;4.50;;;;;;;;;;5405868;26;20272;-61
2024/04/21 04:19:22;;;;;;;4.10;3.90;;;;;;;;;;5405392;26;20305;-60
2024/04/21 04:21:48;;;;;;;5.27;4.93;;;;;;;;;;5406021;26;20234;-61
2024/04/21 04:24:17;;;;;;;4.73;4.33;;;;;;;;;;5405486;26;20294;-61
2024/04/21 04:26:44;;;;;;;4.97;4.67;;;;;;;;;;5404225;26;20242;-60
2024/04/21 04:29:13;;;;;;;4.90;4.60;;;;;;;;;;5401457;26;20669;-61
2024/04/21 04:31:39;;;;;;;4.63;4.33;;;;;;;;;;5409033;26;20230;-60
2024/04/21 04:34:08;;;;;;;4.43;4.13;;;;;;;;;;5403258;26;20230;-60
2024/04/21 04:36:37;;;;;;;4.80;4.40;;;;;;;;;;5402540;26;20267;-60
2024/04/21 04:39:08;;;;;;;5.03;4.37;;;;;;;;;;5401980;26;20224;-60
2024/04/21 04:41:34;;;;;;;3.37;3.27;;;;;;;;;;5401979;26;20226;-61
2024/04/21 04:44:03;;;;;;;3.83;3.63;;;;;;;;;;5401898;26;20268;-61
2024/04/21 04:46:29;;;;;;;3.80;3.50;;;;;;;;;;5399514;26;20243;-61
2024/04/21 04:48:58;;;;;;;4.87;4.60;;;;;;;;;;5402543;26;20603;-61
2024/04/21 04:51:25;;;;;;;4.53;4.23;;;;;;;;;;5408344;26;20237;-60
2024/04/21 04:53:56;;;;;;;4.07;3.87;;;;;;;;;;5403855;26;20755;-62
2024/04/21 04:56:23;;;;;;;3.90;3.70;;;;;;;;;;5411349;26;20237;-61
2024/04/21 04:58:51;;;;;;;4.33;4.10;;;;;;;;;;5417197;26;20745;-61
2024/04/21 05:01:18;;;;;;;4.80;4.43;;;;;;;;;;5404807;26;20284;-61
2024/04/21 05:03:47;;;;;;;4.40;4.00;;;;;;;;;;5404775;26;20865;-61
2024/04/21 05:06:13;;;;;;;4.57;4.37;;;;;;;;;;5390620;26;20290;-61
2024/04/21 05:08:42;;;;;;;4.37;4.07;;;;;;;;;;5404157;26;20229;-60
2024/04/21 05:11:11;;;;;;;4.20;4.00;;;;;;;;;;5403966;26;20226;-60
2024/04/21 05:13:40;;;;;;;4.27;3.97;;;;;;;;;;5410610;26;20232;-61
2024/04/21 05:16:06;;;;;;;4.03;3.73;;;;;;;;;;5426724;26;20357;-60
2024/04/21 05:18:35;;;;;;;4.77;4.37;;;;;;;;;;5373746;26;20242;-62
2024/04/21 05:21:02;;;;;;;4.57;4.27;;;;;;;;;;5388678;26;20233;-61
2024/04/21 05:23:33;;;;;;;5.07;4.67;;;;;;;;;;5402112;26;20277;-60
2024/04/21 05:25:59;;;;;;;4.93;4.63;;;;;;;;;;5395856;26;20291;-61
2024/04/21 05:28:31;;;;;;;6.00;4.93;;;;;;;;;;5408700;26;20238;-60
2024/04/21 05:30:57;;;;;;;5.03;4.57;;;;;;;;;;5403802;26;20230;-61
2024/04/21 05:33:26;;;;;;;4.53;4.30;;;;;;;;;;5403978;26;20245;-60
2024/04/21 05:35:52;;;;;;;4.77;4.37;;;;;;;;;;5404241;26;20297;-61
2024/04/21 05:38:21;;;;;;;4.90;4.53;;;;;;;;;;5404255;26;20280;-60
2024/04/21 05:40:47;;;;;;;4.63;4.33;;;;;;;;;;5403660;26;20586;-60
2024/04/21 05:43:16;;;;;;;4.50;4.20;;;;;;;;;;5404244;26;20233;-61
2024/04/21 05:45:45;;;;;;;6.33;5.20;;;;;;;;;;5400127;26;20233;-61
2024/04/21 05:48:14;;;;;;;4.57;4.37;;;;;;;;;;5403683;26;20229;-60
2024/04/21 05:50:42;;;;;;;7.93;6.63;;;;;;;;;;5408698;26;20231;-61
2024/04/21 05:53:12;;;;;;;5.87;5.47;;;;;;;;;;5400062;26;20775;-61
2024/04/21 05:55:38;;;;;;;5.37;4.87;;;;;;;;;;5405831;26;20384;-60
2024/04/21 05:58:09;;;;;;;6.13;5.63;;;;;;;;;;5407895;26;20234;-60
2024/04/21 06:00:36;;;;;;;5.43;5.10;;;;;;;;;;5406435;26;20301;-60
2024/04/21 06:03:12;;;;;;;5.60;5.20;;;;;;;;;;5407380;26;20289;-60
2024/04/21 06:05:38;;;;;;;5.90;5.40;;;;;;;;;;5407192;26;20378;-61
2024/04/21 06:08:11;;;;;;;5.83;5.43;;;;;;;;;;5407291;26;20651;-61
2024/04/21 06:10:37;;;;;;;5.27;4.77;;;;;;;;;;5402746;26;20764;-63
2024/04/21 06:13:10;;;;;;;5.97;5.53;;;;;;;;;;5407249;26;20593;-63
2024/04/21 06:15:36;;;;;;;5.90;5.50;;;;;;;;;;5407154;26;20659;-62
2024/04/21 06:18:05;;;;;;;5.40;5.00;;;;;;;;;;5407430;26;20239;-63
2024/04/21 06:20:35;;;;;;;5.70;5.20;;;;;;;;;;5406443;26;20234;-62
2024/04/21 06:23:04;;;;;;;6.07;5.73;;;;;;;;;;5407137;26;20236;-63
2024/04/21 06:25:30;;;;;;;7.17;6.57;;;;;;;;;;5407014;26;20243;-63
2024/04/21 06:27:59;;;;;;;6.97;6.33;;;;;;;;;;5407060;26;20897;-62
2024/04/21 06:30:26;;;;;;;7.53;6.93;;;;;;;;;;5404005;26;20244;-63
2024/04/21 06:32:54;;;;;;;7.27;6.67;;;;;;;;;;5407086;26;20228;-62
2024/04/21 06:35:21;;;;;;;6.97;6.20;;;;;;;;;;5406845;26;20267;-62
2024/04/21 06:37:52;;;;;;;5.17;4.87;;;;;;;;;;5407261;26;20265;-64
2024/04/21 06:40:19;;;;;;;5.80;5.40;;;;;;;;;;5405468;26;20228;-64
2024/04/21 06:42:47;;;;;;;4.40;4.10;;;;;;;;;;5407203;26;20230;-62
2024/04/21 06:45:14;;;;;;;3.97;3.77;;;;;;;;;;5420177;26;20623;-62
2024/04/21 06:47:42;;;;;;;3.40;3.20;;;;;;;;;;5400476;26;20801;-62
2024/04/21 06:50:09;;;;;;;3.93;3.70;;;;;;;;;;5410247;26;20233;-63
2024/04/21 06:52:38;;;;;;;2.97;2.87;;;;;;;;;;5403812;26;20261;-63
2024/04/21 06:55:07;;;;;;;3.93;3.63;;;;;;;;;;5406562;26;20230;-62
2024/04/21 06:57:35;;;;;;;3.50;3.30;;;;;;;;;;5408931;26;20642;-62
2024/04/21 07:00:02;;;;;;;3.63;3.43;;;;;;;;;;5406112;26;20265;-63
2024/04/21 07:02:31;;;;;;;3.63;3.43;;;;;;;;;;5404871;26;20232;-62
2024/04/21 07:04:57;;;;;;;2.83;2.73;;;;;;;;;;5379522;26;20265;-62
2024/04/21 07:07:26;;;;;;;3.83;3.53;;;;;;;;;;5421450;26;20277;-62
2024/04/21 07:09:52;;;;;;;3.20;3.00;;;;;;;;;;5412810;26;20278;-62
2024/04/21 07:12:24;;;;;;;3.83;3.63;;;;;;;;;;5395196;26;20237;-62
2024/04/21 07:14:50;;;;;;;3.73;3.53;;;;;;;;;;5395290;26;20749;-62
2024/04/21 07:17:19;;;;;;;3.87;3.47;;;;;;;;;;5406435;26;20788;-63
2024/04/21 07:19:45;;;;;;;3.20;2.87;;;;;;;;;;5406078;26;20273;-62
2024/04/21 07:22:14;;;;;;;3.63;2.50;;;;;;;;;;5400851;26;20237;-63
2024/04/21 07:24:40;;;;;;;2.43;2.33;;;;;;;;;;5391308;26;20226;-62
2024/04/21 07:27:09;;;;;;;2.50;2.40;;;;;;;;;;5398261;26;20240;-63
2024/04/21 07:29:38;;;;;;;2.87;2.77;;;;;;;;;;5410067;26;20237;-62
2024/04/21 07:32:07;;;;;;;2.37;2.17;;;;;;;;;;5392749;26;20275;-63
2024/04/21 07:34:34;;;;;;;2.37;2.27;;;;;;;;;;5399655;26;20761;-62
2024/04/21 07:37:02;;;;;;;2.17;1.97;;;;;;;;;;5401197;26;20656;-62
2024/04/21 07:39:29;;;;;;;2.17;2.13;;;;;;;;;;5398682;26;20237;-62
2024/04/21 07:41:59;;;;;;;1.57;1.47;;;;;;;;;;5405493;26;20568;-63
2024/04/21 07:44:25;;;;;;;1.70;1.60;;;;;;;;;;5401168;26;20238;-62
2024/04/21 07:46:57;;;;;;;1.77;1.67;;;;;;;;;;5405320;26;20254;-62
2024/04/21 07:49:23;;;;;;;4.83;4.43;;;;;;;;;;5401717;26;20276;-63
2024/04/21 07:51:52;;;;;;;9.30;6.33;;;;;;;;;;5409028;26;20276;-62
2024/04/21 07:54:18;;;;;;;2.37;2.10;;;;;;;;;;5384757;26;20234;-62
2024/04/21 07:56:48;;;;;;;2.13;1.93;;;;;;;;;;5394778;26;20240;-63
2024/04/21 07:59:14;;;;;;;1.47;1.10;;;;;;;;;;5398721;26;20276;-63
2024/04/21 08:01:43;;;;;;;2.20;1.13;;;;;;;;;;5405629;26;20233;-62
2024/04/21 08:04:12;;;;;;;1.13;1.13;;;;;;;;;;5406079;26;20238;-63
2024/04/21 08:06:40;;;;;;;1.40;1.40;;;;;;;;;;5409334;26;20298;-63
2024/04/21 08:09:07;;;;;;;0.83;0.83;;;;;;;;;;5405254;26;20232;-63
2024/04/21 08:11:36;;;;;;;1.25;1.25;;;;;;;;;;5398680;26;20388;-63
2024/04/21 08:14:02;;;;;;;3.10;0.90;;;;;;;;;;5389823;26;20320;-66
2024/04/21 08:16:33;;;;;;;0.60;0.60;;;;;;;;;;5401179;26;20245;-63
2024/04/21 08:18:59;;;;;;;0.70;0.70;;;;;;;;;;5404103;26;20840;-64
2024/04/21 08:21:31;;;;;;;1.67;0.97;;;;;;;;;;5405093;26;20342;-65
2024/04/21 08:23:57;;;;;;;0.90;0.90;;;;;;;;;;5394099;26;20314;-65
2024/04/21 08:26:26;;;;;;;1.10;1.10;;;;;;;;;;5405094;26;20353;-60
2024/04/21 08:28:52;;;;;;;1.37;1.37;;;;;;;;;;5405156;26;20346;-65
2024/04/21 08:31:21;;;;;;;1.33;1.33;;;;;;;;;;5401192;26;20228;-65
2024/04/21 08:33:47;;;;;;;1.37;1.37;;;;;;;;;;5391531;26;20223;-66
2024/04/21 08:36:16;;;;;;;1.30;1.30;;;;;;;;;;5405587;26;20247;-62
2024/04/21 08:38:45;;;;;;;1.50;1.50;;;;;;;;;;5408164;26;20231;-61
2024/04/21 08:41:17;;;;;;;1.77;1.67;;;;;;;;;;5402703;26;20272;-65
2024/04/21 08:43:43;;;;;;;1.63;1.57;;;;;;;;;;5414527;26;20275;-65
2024/04/21 08:46:12;;;;;;;1.97;1.87;;;;;;;;;;5406224;26;20756;-65
2024/04/21 08:48:39;;;;;;;1.33;1.33;;;;;;;;;;5415544;26;20233;-66
2024/04/21 08:51:08;;;;;;;1.70;1.27;;;;;;;;;;5428100;26;20314;-64
2024/04/21 08:53:34;;;;;;;1.50;1.50;;;;;;;;;;5418187;26;20232;-65
2024/04/21 08:56:10;;;;;;;1.33;1.33;;;;;;;;;;5413264;26;20249;-66
2024/04/21 08:58:38;;;;;;;1.37;1.37;;;;;;;;;;5425144;26;20229;-64
2024/04/21 09:01:07;;;;;;;1.53;1.43;;;;;;;;;;5433147;26;20596;-65
2024/04/21 09:03:34;;;;;;;1.50;1.50;;;;;;;;;;5420672;26;20727;-64
2024/04/21 09:06:03;;;;;;;1.33;1.30;;;;;;;;;;5380262;26;20237;-64
2024/04/21 09:08:30;;;;;;;2.00;1.90;;;;;;;;;;5418687;26;20286;-67
2024/04/21 09:10:59;;;;;;;1.60;1.60;;;;;;;;;;5398589;26;20302;-61
2024/04/21 09:13:28;;;;;;;1.40;1.33;;;;;;;;;;5394979;26;20284;-62
2024/04/21 09:15:57;;;;;;;2.27;1.73;;;;;;;;;;5391389;26;20289;-61
2024/04/21 09:18:23;;;;;;;2.17;1.30;;;;;;;;;;5386831;26;20569;-61
2024/04/21 09:20:52;;;;;;;1.40;1.40;;;;;;;;;;5388233;26;20237;-61
2024/04/21 09:23:18;;;;;;;1.73;1.70;;;;;;;;;;5398402;26;20697;-62
2024/04/21 09:25:47;;;;;;;1.20;1.20;;;;;;;;;;5423945;26;20227;-61
2024/04/21 09:28:13;;;;;;;1.23;1.23;;;;;;;;;;5439716;26;20224;-61
2024/04/21 09:30:45;;;;;;;1.23;1.10;;;;;;;;;;5421285;26;20233;-61
2024/04/21 09:33:12;;;;;;;1.77;1.47;;;;;;;;;;5406100;26;20284;-62
2024/04/21 09:35:41;;;;;;;1.40;1.40;;;;;;;;;;5421169;26;20240;-61
2024/04/21 09:38:07;;;;;;;1.70;1.60;;;;;;;;;;5433416;26;20236;-61
2024/04/21 09:40:38;;;;;;;2.43;1.07;;;;;;;;;;5416397;26;20707;-61
2024/04/21 09:43:07;;;;;;;1.90;1.27;;;;;;;;;;5401605;26;20269;-61
2024/04/21 09:45:36;;;;;;;0.87;0.57;;;;;;;;;;5420843;26;20290;-61
2024/04/21 09:48:06;;;;;;;0.30;0.30;;;;;;;;;;5401420;26;20238;-60
2024/04/21 09:50:35;;;;;;;0.40;0.40;;;;;;;;;;5403135;26;20337;-61
2024/04/21 09:53:05;;;;;;;0.20;0.20;;;;;;;;;;5415590;26;20230;-60
2024/04/21 09:55:40;;;;;;;0.20;0.20;;;;;;;;;;5409317;26;20285;-61
2024/04/21 09:58:11;;;;;;;0.67;0.50;;;;;;;;;;5409117;26;20610;-61
2024/04/21 10:00:43;;;;;;;0.20;0.20;;;;;;;;;;5407301;26;20280;-61
2024/04/21 10:03:12;;;;;;;0.10;0.10;;;;;;;;;;5411609;26;20801;-61
2024/04/21 10:05:42;;;;;;;0.83;0.53;;;;;;;;;;5394179;26;20250;-61
2024/04/21 10:08:09;;;;;;;0.10;0.10;;;;;;;;;;5388581;26;20277;-63
2024/04/21 10:10:39;;;;;;;0.10;0.10;;;;;;;;;;5399196;26;20673;-61
2024/04/21 10:13:06;;;;;;;0.10;0.10;;;;;;;;;;5407407;26;20284;-61
2024/04/21 10:15:36;;;;;;;0.10;0.10;;;;;;;;;;5405522;26;20342;-60
2024/04/21 10:18:06;;;;;;;0.23;0.23;;;;;;;;;;5407030;26;20233;-61
2024/04/21 10:20:38;;;;;;;0.70;0.70;;;;;;;;;;5405834;26;20607;-60
2024/04/21 10:23:09;;;;;;;0.27;0.27;;;;;;;;;;5405074;26;20234;-61
2024/04/21 10:25:38;;;;;;;0.40;0.30;;;;;;;;;;5389406;26;20337;-61
2024/04/21 10:28:07;;;;;;;0.10;0.10;;;;;;;;;;5406823;26;20229;-61
2024/04/21 10:30:36;;;;;;;0.90;0.90;;;;;;;;;;5397074;26;20251;-61
2024/04/21 10:33:03;;;;;;;0.23;0.23;;;;;;;;;;5401690;26;20239;-60
2024/04/21 10:35:38;;;;;;;0.20;0.20;;;;;;;;;;5406143;26;20237;-61
2024/04/21 10:38:04;;;;;;;1.23;0.27;;;;;;;;;;5406877;26;20268;-63
2024/04/21 10:40:33;;;;;;;1.87;0.87;;;;;;;;;;5397267;26;20230;-60
2024/04/21 10:43:02;;;;;;;0.10;0.10;;;;;;;;;;5402484;26;20226;-63
2024/04/21 10:45:31;;;;;;;0.20;0.20;;;;;;;;;;5406950;26;20237;-61
2024/04/21 10:47:58;;;;;;;0.30;0.30;;;;;;;;;;5407625;26;20268;-60
2024/04/21 10:50:27;;;;;;;0.10;0.10;;;;;;;;;;5406299;26;20296;-61
2024/04/21 10:52:57;;;;;;;0.10;0.10;;;;;;;;;;5406157;26;20612;-61
2024/04/21 10:55:26;;;;;;;0.13;0.13;;;;;;;;;;5400003;26;20230;-61
2024/04/21 10:57:52;;;;;;;0.10;0.10;;;;;;;;;;5389164;26;20229;-61
2024/04/21 11:00:21;;;;;;;0.00;0.00;;;;;;;;;;5406762;26;20230;-60
2024/04/21 11:02:48;;;;;;;0.23;0.20;;;;;;;;;;5401237;26;20237;-61
2024/04/21 11:05:17;;;;;;;0.30;0.30;;;;;;;;;;5398329;26;20789;-61
2024/04/21 11:07:45;;;;;;;0.10;0.10;;;;;;;;;;5406794;26;20284;-61
2024/04/21 11:10:17;;;;;;;0.10;0.10;;;;;;;;;;5400930;26;20226;-61
2024/04/21 11:12:44;;;;;;;0.10;0.10;;;;;;;;;;5403094;26;20600;-61
2024/04/21 11:15:12;;;;;;;0.33;0.10;;;;;;;;;;5405151;26;20229;-61
2024/04/21 11:17:39;;;;;;;0.33;0.33;;;;;;;;;;5406851;26;20230;-61
2024/04/21 11:20:08;;;;;;;1.30;0.00;;;;;;;;;;5406101;26;20338;-61
2024/04/21 11:22:35;;;;;;;0.83;0.83;;;;;;;;;;5400334;26;20697;-61
2024/04/21 11:25:04;;;;;;;1.13;0.50;;;;;;;;;;5407009;26;20280;-67
2024/04/21 11:27:35;;;;;;;0.60;0.60;;;;;;;;;;5406593;26;20287;-66
2024/04/21 11:30:05;;;;;;;0.50;0.40;;;;;;;;;;5402233;26;20241;-66
2024/04/21 11:32:31;;;;;;;0.63;0.63;;;;;;;;;;5387935;26;20307;-66
2024/04/21 11:35:01;;;;;;;0.60;0.60;;;;;;;;;;5402733;26;20228;-62
2024/04/21 11:37:27;;;;;;;0.20;0.20;;;;;;;;;;5387081;26;20284;-60
2024/04/21 11:39:56;;;;;;;0.50;0.30;;;;;;;;;;5393295;26;20234;-61
2024/04/21 11:42:23;;;;;;;0.40;0.30;;;;;;;;;;5407552;26;20233;-61
2024/04/21 11:44:55;;;;;;;0.30;0.30;;;;;;;;;;5406339;26;20324;-60
2024/04/21 11:47:22;;;;;;;0.17;0.17;;;;;;;;;;5425852;26;20745;-61
2024/04/21 11:49:51;;;;;;;1.53;0.20;;;;;;;;;;5411257;26;20287;-61
2024/04/21 11:52:17;;;;;;;0.40;0.30;;;;;;;;;;5413876;26;20230;-61
2024/04/21 11:54:46;;;;;;;2.77;1.27;;;;;;;;;;5411699;26;20330;-61
2024/04/21 11:57:12;;;;;;;0.60;0.60;;;;;;;;;;5416645;26;20326;-62
2024/04/21 11:59:41;;;;;;;1.77;1.77;;;;;;;;;;5401841;26;20237;-61
2024/04/21 12:02:11;;;;;;;1.77;0.77;;;;;;;;;;5389234;26;20248;-61
2024/04/21 12:04:40;;;;;;;0.17;0.17;;;;;;;;;;5411028;26;20234;-61
2024/04/21 12:07:06;;;;;;;1.60;0.27;;;;;;;;;;5416756;26;20273;-61
2024/04/21 12:09:35;;;;;;;0.10;0.10;;;;;;;;;;5405821;26;20221;-61
2024/04/21 12:12:01;;;;;;;3.97;3.53;;;;;;;;;;5406205;26;20213;-61
2024/04/21 12:14:32;;;;;;;1.40;1.30;;;;;;;;;;5418892;26;20607;-61
2024/04/21 12:16:59;;;;;;;0.37;0.37;;;;;;;;;;5412318;26;20284;-62
2024/04/21 12:19:31;;;;;;;0.13;0.13;;;;;;;;;;5400854;26;20242;-62
2024/04/21 12:21:57;;;;;;;0.20;0.20;;;;;;;;;;5418115;26;20615;-61
2024/04/21 12:24:26;;;;;;;0.13;0.10;;;;;;;;;;5405980;26;20272;-61
2024/04/21 12:26:53;;;;;;;4.23;2.63;;;;;;;;;;5405909;26;20280;-61
2024/04/21 12:29:23;;;;;;;2.80;1.93;;;;;;;;;;5420034;26;20765;-62
2024/04/21 12:31:50;;;;;;;1.50;1.30;;;;;;;;;;5425898;26;20231;-62
2024/04/21 12:34:19;;;;;;;0.60;0.60;;;;;;;;;;5441490;26;20327;-62
2024/04/21 12:36:47;;;;;;;0.30;0.30;;;;;;;;;;5413773;26;20233;-62
2024/04/21 12:39:16;;;;;;;0.83;0.57;;;;;;;;;;5415866;26;20794;-62
2024/04/21 12:41:43;;;;;;;1.00;0.57;;;;;;;;;;5426089;26;20232;-62
2024/04/21 12:44:12;;;;;;;1.50;0.70;;;;;;;;;;5441320;26;20224;-62
2024/04/21 12:46:38;;;;;;;0.73;0.30;;;;;;;;;;5418614;26;20239;-61
2024/04/21 12:49:07;;;;;;;0.70;0.30;;;;;;;;;;5419636;26;20312;-61
2024/04/21 12:51:34;;;;;;;0.20;0.20;;;;;;;;;;5412360;26;20237;-62
2024/04/21 12:54:05;;;;;;;2.53;1.77;;;;;;;;;;5404877;26;20241;-61
2024/04/21 12:56:31;;;;;;;2.07;1.60;;;;;;;;;;5404960;26;20240;-62
2024/04/21 12:59:01;;;;;;;1.93;1.50;;;;;;;;;;5404708;26;20345;-62
2024/04/21 13:01:27;;;;;;;1.93;1.07;;;;;;;;;;5405733;26;20575;-62
2024/04/21 13:03:56;;;;;;;3.10;2.90;;;;;;;;;;5406224;26;20236;-62
2024/04/21 13:06:23;;;;;;;3.47;3.27;;;;;;;;;;5408654;26;20239;-62
2024/04/21 13:08:51;;;;;;;3.83;3.57;;;;;;;;;;5407977;26;20292;-62
2024/04/21 13:11:20;;;;;;;4.97;4.57;;;;;;;;;;5408913;26;20234;-61
2024/04/21 13:13:49;;;;;;;4.53;4.30;;;;;;;;;;5406480;26;20290;-62
2024/04/21 13:16:15;;;;;;;3.33;3.23;;;;;;;;;;5408200;26;20747;-62
2024/04/21 13:18:44;;;;;;;2.80;2.70;;;;;;;;;;5407052;26;20245;-62
2024/04/21 13:21:11;;;;;;;4.03;3.83;;;;;;;;;;5407677;26;20228;-62
2024/04/21 13:23:40;;;;;;;3.60;3.50;;;;;;;;;;5411054;26;20341;-62
2024/04/21 13:26:06;;;;;;;1.17;1.17;;;;;;;;;;5417754;26;20285;-59
2024/04/21 13:28:38;;;;;;;1.33;1.33;;;;;;;;;;5407616;26;20292;-63
2024/04/21 13:31:04;;;;;;;4.20;2.80;;;;;;;;;;5407356;26;20742;-60
2024/04/21 13:33:33;;;;;;;3.97;3.10;;;;;;;;;;5408060;26;20284;-62
2024/04/21 13:35:59;;;;;;;1.93;1.80;;;;;;;;;;5408062;26;20596;-60
2024/04/21 13:38:28;;;;;;;3.00;2.80;;;;;;;;;;5422905;26;20237;-60
2024/04/21 13:40:57;;;;;;;2.80;2.70;;;;;;;;;;5410808;26;20604;-60
2024/04/21 13:43:26;;;;;;;1.47;1.40;;;;;;;;;;5393178;26;20272;-61
2024/04/21 13:45:55;;;;;;;1.50;1.50;;;;;;;;;;5413318;26;20236;-60
2024/04/21 13:48:24;;;;;;;2.60;0.90;;;;;;;;;;5387158;26;20335;-60
2024/04/21 13:50:50;;;;;;;1.67;1.67;;;;;;;;;;5404303;26;20617;-60
2024/04/21 13:53:19;;;;;;;1.13;0.70;;;;;;;;;;5406504;26;20245;-60
2024/04/21 13:55:45;;;;;;;0.93;0.50;;;;;;;;;;5395302;26;20746;-60
2024/04/21 13:58:14;;;;;;;0.60;0.60;;;;;;;;;;5408501;26;20693;-60
2024/04/21 14:00:41;;;;;;;1.00;1.00;;;;;;;;;;5406939;26;20233;-59
2024/04/21 14:03:12;;;;;;;1.17;0.30;;;;;;;;;;5407644;26;20237;-60
2024/04/21 14:05:39;;;;;;;0.50;0.50;;;;;;;;;;5407698;26;20787;-60
2024/04/21 14:08:08;;;;;;;0.40;0.40;;;;;;;;;;5407815;26;20753;-60
2024/04/21 14:10:35;;;;;;;0.57;0.40;;;;;;;;;;5420348;26;20236;-59
2024/04/21 14:13:06;;;;;;;0.80;0.80;;;;;;;;;;5372280;26;20341;-59
2024/04/21 14:15:35;;;;;;;0.83;0.83;;;;;;;;;;5371090;26;20242;-59
2024/04/21 14:18:02;;;;;;;1.23;0.93;;;;;;;;;;5388579;26;20271;-59
2024/04/21 14:20:33;;;;;;;0.40;0.40;;;;;;;;;;5406593;26;20792;-59
2024/04/21 14:23:00;;;;;;;2.17;0.30;;;;;;;;;;5399803;26;20745;-59
2024/04/21 14:25:29;;;;;;;0.40;0.40;;;;;;;;;;5407353;26;20666;-59
2024/04/21 14:27:55;;;;;;;2.43;0.77;;;;;;;;;;5407107;26;20280;-59
2024/04/21 14:30:24;;;;;;;0.83;0.73;;;;;;;;;;5405829;26;20277;-59
2024/04/21 14:32:50;;;;;;;0.80;0.53;;;;;;;;;;5407519;26;20229;-58
2024/04/21 14:35:19;;;;;;;0.50;0.50;;;;;;;;;;5406936;26;20236;-59
2024/04/21 14:37:48;;;;;;;1.07;1.07;;;;;;;;;;5406950;26;20274;-59
2024/04/21 14:40:17;;;;;;;0.70;0.70;;;;;;;;;;5418643;26;20580;-59
2024/04/21 14:42:43;;;;;;;0.60;0.60;;;;;;;;;;5408836;26;20271;-59
2024/04/21 14:45:12;;;;;;;0.60;0.60;;;;;;;;;;5406874;26;20266;-58
2024/04/21 14:47:43;;;;;;;0.70;0.70;;;;;;;;;;5424531;26;20232;-59
2024/04/21 14:50:12;;;;;;;0.80;0.77;;;;;;;;;;5442504;26;20345;-59